createdAt,value
2022-07-29T00:01:19.271Z,18.84
2022-07-29T00:03:47.608Z,18.84
2022-07-29T00:06:16.972Z,18.84
2022-07-29T00:08:44.877Z,18.84
2022-07-29T00:11:12.923Z,18.82
2022-07-29T00:13:45.391Z,18.81
2022-07-29T00:16:17.271Z,18.79
2022-07-29T00:18:45.070Z,18.76
2022-07-29T00:21:12.896Z,18.67
2022-07-29T00:23:42.254Z,18.63
2022-07-29T00:26:10.417Z,18.60
2022-07-29T00:28:38.233Z,18.59
2022-07-29T00:31:06.053Z,18.62
2022-07-29T00:33:33.803Z,18.60
2022-07-29T00:36:00.520Z,18.59
2022-07-29T00:38:28.376Z,18.58
2022-07-29T00:40:57.566Z,18.49
2022-07-29T00:43:25.432Z,18.36
2022-07-29T00:45:53.621Z,18.39
2022-07-29T00:48:21.538Z,18.45
2022-07-29T00:50:51.227Z,18.42
2022-07-29T00:53:19.379Z,18.38
2022-07-29T00:55:47.281Z,18.42
2022-07-29T00:58:16.613Z,18.40
2022-07-29T01:00:44.942Z,18.45
2022-07-29T01:03:13.782Z,18.49
2022-07-29T01:05:49.952Z,18.48
2022-07-29T01:08:20.210Z,18.39
2022-07-29T01:10:48.690Z,18.36
2022-07-29T01:13:18.888Z,18.38
2022-07-29T01:15:50.309Z,18.42
2022-07-29T01:18:22.032Z,18.47
2022-07-29T01:21:06.454Z,18.49
2022-07-29T01:24:09.891Z,18.50
2022-07-29T01:26:44.499Z,18.52
2022-07-29T01:29:19.677Z,18.48
2022-07-29T01:31:58.967Z,18.36
2022-07-29T01:34:35.644Z,18.31
2022-07-29T01:37:08.391Z,18.24
2022-07-29T01:39:37.721Z,18.11
2022-07-29T01:42:11.103Z,18.10
2022-07-29T01:44:46.215Z,18.00
2022-07-29T01:47:18.512Z,17.88
2022-07-29T01:49:51.012Z,17.88
2022-07-29T01:52:22.890Z,17.87
2022-07-29T01:54:55.331Z,17.86
2022-07-29T01:57:28.792Z,17.88
2022-07-29T01:59:58.936Z,17.83
2022-07-29T02:02:29.066Z,17.78
2022-07-29T02:04:57.634Z,17.75
2022-07-29T02:07:26.933Z,17.76
2022-07-29T02:09:55.207Z,17.80
2022-07-29T02:12:24.497Z,17.71
2022-07-29T02:14:54.705Z,17.73
2022-07-29T02:17:27.235Z,17.71
2022-07-29T02:19:58.152Z,17.71
2022-07-29T02:22:27.040Z,17.67
2022-07-29T02:24:55.468Z,17.62
2022-07-29T02:27:24.809Z,17.59
2022-07-29T02:29:54.360Z,17.51
2022-07-29T02:32:25.300Z,17.55
2022-07-29T02:34:54.638Z,17.56
2022-07-29T02:37:23.479Z,17.57
2022-07-29T02:39:54.428Z,17.50
2022-07-29T02:42:23.825Z,17.52
2022-07-29T02:44:52.471Z,17.48
2022-07-29T02:47:24.159Z,17.49
2022-07-29T02:49:57.477Z,17.49
2022-07-29T02:52:28.641Z,17.47
2022-07-29T02:54:58.392Z,17.44
2022-07-29T02:57:32.746Z,17.37
2022-07-29T03:00:05.892Z,17.35
2022-07-29T03:02:36.758Z,17.31
2022-07-29T03:05:07.536Z,17.31
2022-07-29T03:07:37.363Z,17.30
2022-07-29T03:10:06.530Z,17.24
2022-07-29T03:12:41.852Z,17.17
2022-07-29T03:15:11.010Z,17.12
2022-07-29T03:17:39.232Z,17.02
2022-07-29T03:20:09.461Z,17.03
2022-07-29T03:22:44.398Z,17.07
2022-07-29T03:25:13.118Z,17.07
2022-07-29T03:27:40.915Z,17.10
2022-07-29T03:30:09.966Z,17.12
2022-07-29T03:32:38.384Z,17.04
2022-07-29T03:35:10.422Z,17.01
2022-07-29T03:37:38.479Z,17.07
2022-07-29T03:40:09.680Z,17.14
2022-07-29T03:42:39.157Z,17.18
2022-07-29T03:45:09.650Z,17.18
2022-07-29T03:47:50.612Z,17.22
2022-07-29T03:50:22.440Z,17.19
2022-07-29T03:52:50.496Z,17.21
2022-07-29T03:55:18.392Z,17.19
2022-07-29T03:57:47.103Z,17.19
2022-07-29T04:00:16.527Z,17.18
2022-07-29T04:02:49.476Z,17.19
2022-07-29T04:05:17.985Z,17.22
2022-07-29T04:07:47.413Z,17.24
2022-07-29T04:10:16.552Z,17.25
2022-07-29T04:12:44.313Z,17.25
2022-07-29T04:15:13.013Z,17.25
2022-07-29T04:17:40.666Z,17.23
2022-07-29T04:20:09.594Z,17.22
2022-07-29T04:22:37.294Z,17.22
2022-07-29T04:25:07.007Z,17.19
2022-07-29T04:27:34.641Z,17.17
2022-07-29T04:30:02.380Z,17.17
2022-07-29T04:32:30.149Z,17.16
2022-07-29T04:34:57.810Z,17.19
2022-07-29T04:37:25.583Z,17.15
2022-07-29T04:39:53.209Z,17.15
2022-07-29T04:42:27.451Z,17.14
2022-07-29T04:44:55.486Z,17.13
2022-07-29T04:47:23.676Z,17.18
2022-07-29T04:49:51.298Z,17.19
2022-07-29T04:52:18.889Z,17.20
2022-07-29T04:54:46.531Z,17.25
2022-07-29T04:57:14.130Z,17.30
2022-07-29T04:59:43.070Z,17.36
2022-07-29T05:02:10.712Z,17.39
2022-07-29T05:04:38.393Z,17.44
2022-07-29T05:07:05.995Z,17.50
2022-07-29T05:09:33.718Z,17.55
2022-07-29T05:12:01.310Z,17.56
2022-07-29T05:14:28.970Z,17.59
2022-07-29T05:16:58.172Z,17.64
2022-07-29T05:19:25.788Z,17.64
2022-07-29T05:21:53.407Z,17.69
2022-07-29T05:24:21.009Z,17.71
2022-07-29T05:26:48.604Z,17.75
2022-07-29T05:29:43.095Z,17.78
2022-07-29T05:32:06.360Z,17.81
2022-07-29T05:34:34.012Z,17.88
2022-07-29T05:37:01.644Z,17.93
2022-07-29T05:39:47.089Z,18.01
2022-07-29T05:42:16.754Z,18.14
2022-07-29T05:44:44.447Z,18.24
2022-07-29T05:47:13.524Z,18.33
2022-07-29T05:49:41.187Z,18.38
2022-07-29T05:52:08.930Z,18.49
2022-07-29T05:54:36.583Z,18.55
2022-07-29T05:57:06.317Z,18.51
2022-07-29T05:59:33.989Z,18.53
2022-07-29T06:02:01.714Z,18.59
2022-07-29T06:04:30.762Z,18.69
2022-07-29T06:06:58.420Z,18.83
2022-07-29T06:09:26.977Z,18.96
2022-07-29T06:11:54.661Z,19.14
2022-07-29T06:14:22.271Z,19.27
2022-07-29T06:16:49.986Z,19.35
2022-07-29T06:19:17.753Z,19.46
2022-07-29T06:21:47.379Z,19.63
2022-07-29T06:24:16.071Z,19.78
2022-07-29T06:26:44.342Z,19.94
2022-07-29T06:29:12.654Z,20.10
2022-07-29T06:31:40.550Z,20.26
2022-07-29T06:34:08.238Z,20.38
2022-07-29T06:36:37.706Z,20.56
2022-07-29T06:39:08.094Z,20.71
2022-07-29T06:41:36.420Z,20.92
2022-07-29T06:44:05.545Z,21.15
2022-07-29T06:46:33.681Z,21.23
2022-07-29T06:49:02.529Z,21.23
2022-07-29T06:51:30.522Z,21.46
2022-07-29T06:54:02.461Z,21.62
2022-07-29T06:56:38.873Z,21.56
2022-07-29T06:59:08.296Z,21.72
2022-07-29T07:01:36.523Z,22.04
2022-07-29T07:04:04.300Z,22.27
2022-07-29T07:06:31.854Z,22.43
2022-07-29T07:08:59.504Z,22.66
2022-07-29T07:11:27.066Z,22.92
2022-07-29T07:14:00.691Z,23.08
2022-07-29T07:16:30.502Z,23.21
2022-07-29T07:18:58.164Z,23.22
2022-07-29T07:21:25.839Z,23.44
2022-07-29T07:23:53.427Z,23.44
2022-07-29T07:26:21.200Z,23.47
2022-07-29T07:28:48.806Z,23.83
2022-07-29T07:31:17.838Z,24.04
2022-07-29T07:33:45.474Z,24.23
2022-07-29T07:36:13.095Z,24.09
2022-07-29T07:38:40.675Z,24.40
2022-07-29T07:41:08.344Z,24.75
2022-07-29T07:43:36.114Z,24.00
2022-07-29T07:46:03.821Z,23.55
2022-07-29T07:48:32.869Z,24.04
2022-07-29T07:51:00.485Z,24.22
2022-07-29T07:53:28.554Z,24.33
2022-07-29T07:56:12.724Z,24.59
2022-07-29T07:58:40.836Z,25.14
2022-07-29T08:01:08.714Z,25.59
2022-07-29T08:03:38.425Z,25.82
2022-07-29T08:06:06.421Z,25.95
2022-07-29T08:08:34.093Z,25.55
2022-07-29T08:11:06.898Z,25.39
2022-07-29T08:13:36.594Z,25.43
2022-07-29T08:16:14.622Z,25.77
2022-07-29T08:18:49.194Z,24.94
2022-07-29T08:21:17.157Z,25.03
2022-07-29T08:23:58.984Z,25.13
2022-07-29T08:26:27.537Z,25.00
2022-07-29T08:28:55.175Z,24.73
2022-07-29T08:31:22.947Z,24.33
2022-07-29T08:33:52.006Z,24.46
2022-07-29T08:36:21.867Z,24.55
2022-07-29T08:38:50.448Z,24.46
2022-07-29T08:41:19.932Z,24.01
2022-07-29T08:43:47.666Z,24.28
2022-07-29T08:46:15.431Z,24.42
2022-07-29T08:48:43.702Z,24.08
2022-07-29T08:51:15.377Z,24.16
2022-07-29T08:53:44.378Z,24.64
2022-07-29T08:56:13.981Z,24.72
2022-07-29T08:58:42.137Z,24.25
2022-07-29T09:01:13.919Z,24.34
2022-07-29T09:03:43.615Z,24.27
2022-07-29T09:06:15.347Z,24.24
2022-07-29T09:08:43.667Z,24.38
2022-07-29T09:11:12.529Z,24.71
2022-07-29T09:13:40.149Z,24.96
2022-07-29T09:16:09.494Z,25.13
2022-07-29T09:18:38.532Z,25.28
2022-07-29T09:21:24.022Z,25.21
2022-07-29T09:24:08.110Z,25.23
2022-07-29T09:26:37.081Z,25.24
2022-07-29T09:29:10.829Z,25.22
2022-07-29T09:31:41.806Z,24.83
2022-07-29T09:34:10.821Z,24.92
2022-07-29T09:36:42.545Z,24.75
2022-07-29T09:39:11.639Z,24.78
2022-07-29T09:41:50.804Z,24.75
2022-07-29T09:44:19.259Z,25.00
2022-07-29T09:46:58.370Z,25.15
2022-07-29T09:49:26.747Z,25.21
2022-07-29T09:52:08.685Z,25.27
2022-07-29T09:54:41.260Z,25.18
2022-07-29T09:57:13.447Z,25.15
2022-07-29T09:59:50.289Z,25.20
2022-07-29T10:02:23.641Z,25.39
2022-07-29T10:04:51.811Z,25.76
2022-07-29T10:07:20.332Z,25.95
2022-07-29T10:09:55.354Z,26.28
2022-07-29T10:12:23.766Z,26.63
2022-07-29T10:14:52.385Z,26.71
2022-07-29T10:17:20.590Z,26.97
2022-07-29T10:19:49.804Z,27.20
2022-07-29T10:22:43.365Z,26.69
2022-07-29T10:25:07.015Z,26.85
2022-07-29T10:27:34.641Z,26.97
2022-07-29T10:30:02.668Z,27.30
2022-07-29T10:32:39.473Z,27.58
2022-07-29T10:35:30.056Z,27.99
2022-07-29T10:38:36.120Z,28.36
2022-07-29T10:41:32.051Z,28.70
2022-07-29T10:44:06.527Z,28.51
2022-07-29T10:46:37.439Z,28.08
2022-07-29T10:49:08.408Z,27.66
2022-07-29T10:51:57.435Z,28.20
2022-07-29T10:54:51.021Z,28.91
2022-07-29T11:00:37.761Z,28.60
2022-07-29T11:03:10.889Z,28.83
2022-07-29T11:06:02.842Z,28.98
2022-07-29T11:08:36.570Z,29.13
2022-07-29T11:11:38.149Z,28.98
2022-07-29T11:14:10.146Z,29.19
2022-07-29T11:17:00.749Z,29.46
2022-07-29T11:19:30.428Z,29.52
2022-07-29T11:21:59.273Z,28.92
2022-07-29T11:24:30.294Z,29.05
2022-07-29T11:27:14.900Z,29.29
2022-07-29T11:29:55.651Z,29.56
2022-07-29T11:32:24.921Z,29.53
2022-07-29T11:35:17.573Z,29.45
2022-07-29T11:37:52.625Z,29.37
2022-07-29T11:40:23.221Z,29.35
2022-07-29T11:42:52.145Z,29.35
2022-07-29T11:45:42.624Z,29.26
2022-07-29T11:48:29.387Z,29.32
2022-07-29T11:51:00.648Z,29.31
2022-07-29T11:56:17.213Z,29.23
2022-07-29T11:58:44.930Z,29.32
2022-07-29T12:01:19.229Z,29.21
2022-07-29T12:03:46.920Z,29.10
2022-07-29T12:06:18.409Z,28.58
2022-07-29T12:08:49.340Z,28.64
2022-07-29T12:11:20.503Z,28.67
2022-07-29T12:13:49.669Z,28.33
2022-07-29T12:16:25.502Z,28.33
2022-07-29T12:18:58.461Z,28.38
2022-07-29T12:21:27.001Z,27.95
2022-07-29T12:24:01.764Z,28.08
2022-07-29T12:26:35.666Z,28.08
2022-07-29T12:29:03.969Z,28.04
2022-07-29T12:31:44.169Z,27.87
2022-07-29T12:34:13.370Z,27.82
2022-07-29T12:36:41.516Z,27.82
2022-07-29T12:39:10.029Z,27.68
2022-07-29T12:41:37.749Z,27.70
2022-07-29T12:44:05.890Z,27.75
2022-07-29T12:46:33.608Z,27.62
2022-07-29T12:49:04.142Z,27.46
2022-07-29T12:51:32.933Z,27.23
2022-07-29T12:54:11.552Z,27.16
2022-07-29T12:56:43.983Z,27.04
2022-07-29T12:59:17.061Z,27.01
2022-07-29T13:01:45.080Z,26.94
2022-07-29T13:04:26.134Z,26.76
2022-07-29T13:07:00.782Z,26.72
2022-07-29T13:09:38.918Z,26.55
2022-07-29T13:12:09.434Z,26.51
2022-07-29T13:14:38.007Z,26.35
2022-07-29T13:17:07.689Z,26.28
2022-07-29T13:19:38.971Z,26.07
2022-07-29T13:22:06.961Z,25.89
2022-07-29T13:24:34.634Z,25.88
2022-07-29T13:27:02.414Z,25.84
2022-07-29T13:29:34.132Z,25.75
2022-07-29T13:32:01.921Z,25.69
2022-07-29T13:34:29.504Z,25.68
2022-07-29T13:36:58.429Z,25.65
2022-07-29T13:39:26.033Z,25.50
2022-07-29T13:41:53.665Z,25.42
2022-07-29T13:44:21.271Z,25.43
2022-07-29T13:46:48.907Z,25.31
2022-07-29T13:49:16.619Z,25.35
2022-07-29T13:51:44.250Z,25.11
2022-07-29T13:54:13.239Z,25.13
2022-07-29T13:56:40.921Z,25.27
2022-07-29T13:59:08.824Z,25.17
2022-07-29T14:01:36.625Z,25.28
2022-07-29T14:04:04.756Z,25.32
2022-07-29T14:06:32.520Z,25.04
2022-07-29T14:09:00.182Z,25.30
2022-07-29T14:11:29.169Z,25.36
2022-07-29T14:13:56.789Z,25.45
2022-07-29T14:16:24.535Z,25.51
2022-07-29T14:18:52.259Z,25.64
2022-07-29T14:21:19.978Z,25.61
2022-07-29T14:23:47.642Z,25.56
2022-07-29T14:26:18.906Z,25.67
2022-07-29T14:28:51.221Z,25.56
2022-07-29T14:31:19.063Z,25.48
2022-07-29T14:33:49.341Z,25.55
2022-07-29T14:36:17.286Z,25.60
2022-07-29T14:38:45.149Z,25.66
2022-07-29T14:41:14.024Z,25.44
2022-07-29T14:43:41.727Z,25.41
2022-07-29T14:46:10.948Z,25.57
2022-07-29T14:48:38.710Z,25.54
2022-07-29T14:51:07.492Z,25.55
2022-07-29T14:53:35.264Z,25.12
2022-07-29T14:56:20.847Z,25.12
2022-07-29T14:58:51.943Z,25.01
2022-07-29T15:01:21.113Z,24.91
2022-07-29T15:03:48.800Z,25.00
2022-07-29T15:06:16.446Z,25.00
2022-07-29T15:08:44.161Z,25.13
2022-07-29T15:11:11.769Z,25.13
2022-07-29T15:13:39.784Z,25.11
2022-07-29T15:16:07.766Z,25.07
2022-07-29T15:18:38.674Z,24.99
2022-07-29T15:21:07.795Z,24.89
2022-07-29T15:23:37.244Z,24.81
2022-07-29T15:26:05.791Z,24.86
2022-07-29T15:28:33.517Z,24.82
2022-07-29T15:31:01.273Z,24.69
2022-07-29T15:33:28.937Z,24.53
2022-07-29T15:35:59.166Z,24.66
2022-07-29T15:38:28.679Z,24.77
2022-07-29T15:40:56.858Z,24.87
2022-07-29T15:43:24.665Z,24.97
2022-07-29T15:46:11.702Z,25.01
2022-07-29T15:48:41.085Z,24.92
2022-07-29T15:51:10.211Z,24.94
2022-07-29T15:53:37.885Z,25.06
2022-07-29T15:56:05.976Z,25.11
2022-07-29T15:58:33.689Z,25.10
2022-07-29T16:01:01.410Z,25.10
2022-07-29T16:03:29.527Z,25.06
2022-07-29T16:05:57.230Z,25.05
2022-07-29T16:08:26.283Z,24.98
2022-07-29T16:10:53.974Z,24.92
2022-07-29T16:13:23.580Z,24.88
2022-07-29T16:16:02.008Z,24.80
2022-07-29T16:18:31.117Z,24.67
2022-07-29T16:20:58.776Z,24.56
2022-07-29T16:23:27.957Z,24.39
2022-07-29T16:26:00.450Z,24.29
2022-07-29T16:28:28.665Z,24.18
2022-07-29T16:30:57.155Z,24.14
2022-07-29T16:33:25.039Z,24.11
2022-07-29T16:35:53.237Z,23.96
2022-07-29T16:38:21.244Z,23.91
2022-07-29T16:40:50.825Z,23.88
2022-07-29T16:43:18.464Z,23.81
2022-07-29T16:45:47.025Z,23.68
2022-07-29T16:48:15.179Z,23.67
2022-07-29T16:50:45.698Z,23.56
2022-07-29T16:53:13.340Z,23.41
2022-07-29T16:55:42.356Z,23.33
2022-07-29T16:58:11.805Z,23.23
2022-07-29T17:00:39.935Z,23.03
2022-07-29T17:03:07.708Z,22.40
2022-07-29T17:05:50.435Z,22.16
2022-07-29T17:08:21.661Z,21.65
2022-07-29T17:10:49.542Z,21.49
2022-07-29T17:13:18.517Z,21.40
2022-07-29T17:15:46.246Z,21.48
2022-07-29T17:18:13.886Z,21.45
2022-07-29T17:20:42.378Z,21.38
2022-07-29T17:23:10.267Z,21.19
2022-07-29T17:25:37.991Z,21.05
2022-07-29T17:28:05.944Z,21.07
2022-07-29T17:30:34.963Z,20.87
2022-07-29T17:33:02.667Z,20.69
2022-07-29T17:35:47.920Z,20.51
2022-07-29T17:38:15.581Z,20.25
2022-07-29T17:40:43.384Z,19.87
2022-07-29T17:43:11.007Z,19.88
2022-07-29T17:45:50.017Z,20.00
2022-07-29T17:48:18.867Z,19.94
2022-07-29T17:50:46.781Z,20.01
2022-07-29T17:53:16.211Z,20.03
2022-07-29T17:55:45.397Z,20.03
2022-07-29T17:58:13.268Z,19.97
2022-07-29T18:00:42.542Z,19.87
2022-07-29T18:03:10.309Z,19.80
2022-07-29T18:05:38.214Z,19.63
2022-07-29T18:08:06.243Z,19.51
2022-07-29T18:10:33.946Z,19.28
2022-07-29T18:13:02.804Z,19.15
2022-07-29T18:15:30.535Z,19.12
2022-07-29T18:17:59.473Z,18.98
2022-07-29T18:20:27.397Z,18.93
2022-07-29T18:22:55.066Z,18.93
2022-07-29T18:25:22.833Z,18.85
2022-07-29T18:27:50.572Z,18.57
2022-07-29T18:30:19.171Z,18.59
2022-07-29T18:33:04.899Z,18.57
2022-07-29T18:35:36.080Z,18.62
2022-07-29T18:38:03.793Z,18.60
2022-07-29T18:40:31.676Z,18.54
2022-07-29T18:42:59.343Z,18.48
2022-07-29T18:45:28.499Z,18.43
2022-07-29T18:47:56.658Z,18.32
2022-07-29T18:50:29.230Z,18.35
2022-07-29T18:53:01.127Z,18.37
2022-07-29T18:55:28.765Z,18.30
2022-07-29T18:57:57.299Z,18.27
2022-07-29T19:00:26.057Z,18.25
2022-07-29T19:02:53.971Z,18.20
2022-07-29T19:05:22.979Z,18.10
2022-07-29T19:07:50.749Z,18.03
2022-07-29T19:10:19.751Z,17.97
2022-07-29T19:12:47.457Z,17.95
2022-07-29T19:15:19.891Z,17.81
2022-07-29T19:17:48.640Z,17.76
2022-07-29T19:20:16.579Z,17.67
2022-07-29T19:22:44.190Z,17.66
2022-07-29T19:25:11.915Z,17.56
2022-07-29T19:27:41.245Z,17.48
2022-07-29T19:30:09.685Z,17.43
2022-07-29T19:32:37.701Z,17.48
2022-07-29T19:35:23.677Z,17.46
2022-07-29T19:37:51.568Z,17.35
2022-07-29T19:40:19.292Z,17.37
2022-07-29T19:42:51.477Z,17.22
2022-07-29T19:45:19.317Z,17.19
2022-07-29T19:47:46.981Z,17.18
2022-07-29T19:50:15.084Z,17.22
2022-07-29T19:52:42.726Z,17.25
2022-07-29T19:55:11.169Z,17.22
2022-07-29T19:57:41.073Z,17.27
2022-07-29T20:00:11.729Z,17.17
2022-07-29T20:02:40.134Z,17.21
2022-07-29T20:05:08.893Z,17.22
2022-07-29T20:07:36.747Z,17.28
2022-07-29T20:10:05.415Z,17.28
2022-07-29T20:12:33.116Z,17.28
2022-07-29T20:15:01.621Z,17.31
2022-07-29T20:17:30.608Z,17.36
2022-07-29T20:19:59.953Z,17.25
2022-07-29T20:22:27.712Z,17.26
2022-07-29T20:24:55.325Z,17.27
2022-07-29T20:27:23.038Z,17.23
2022-07-29T20:29:50.661Z,17.25
2022-07-29T20:32:18.287Z,17.29
2022-07-29T20:34:47.297Z,17.24
2022-07-29T20:37:16.594Z,17.25
2022-07-29T20:39:46.378Z,17.25
2022-07-29T20:42:14.020Z,17.23
2022-07-29T20:44:41.680Z,17.23
2022-07-29T20:47:09.802Z,17.22
2022-07-29T20:49:37.449Z,17.24
2022-07-29T20:52:06.823Z,17.25
2022-07-29T20:54:34.445Z,17.28
2022-07-29T20:57:02.415Z,17.33
2022-07-29T20:59:30.219Z,17.20
2022-07-29T21:01:57.936Z,17.23
2022-07-29T21:04:30.825Z,17.24
2022-07-29T21:07:00.426Z,17.16
2022-07-29T21:09:29.808Z,17.20
2022-07-29T21:11:59.484Z,17.13
2022-07-29T21:14:46.678Z,17.05
2022-07-29T21:17:14.659Z,17.09
2022-07-29T21:19:42.425Z,17.16
2022-07-29T21:22:10.144Z,17.21
2022-07-29T21:24:39.154Z,17.20
2022-07-29T21:27:24.546Z,17.15
2022-07-29T21:29:52.348Z,17.20
2022-07-29T21:32:27.555Z,17.15
2022-07-29T21:34:57.905Z,17.19
2022-07-29T21:37:25.635Z,17.16
2022-07-29T21:39:54.586Z,17.16
2022-07-29T21:42:22.220Z,17.22
2022-07-29T21:44:50.297Z,17.25
2022-07-29T21:47:17.886Z,17.23
2022-07-29T21:49:46.447Z,17.19
2022-07-29T21:52:14.265Z,17.21
2022-07-29T21:54:42.609Z,17.22
2022-07-29T21:57:11.566Z,17.15
2022-07-29T21:59:39.155Z,17.12
2022-07-29T22:02:06.789Z,17.17
2022-07-29T22:04:36.156Z,17.14
2022-07-29T22:07:04.198Z,17.12
2022-07-29T22:09:32.124Z,17.09
2022-07-29T22:11:59.709Z,17.08
2022-07-29T22:14:28.686Z,17.08
2022-07-29T22:16:58.150Z,17.08
2022-07-29T22:19:27.514Z,17.14
2022-07-29T22:21:55.366Z,17.12
2022-07-29T22:24:22.972Z,17.05
2022-07-29T22:26:50.592Z,17.09
2022-07-29T22:29:19.073Z,17.10
2022-07-29T22:31:48.033Z,17.06
2022-07-29T22:34:16.013Z,17.06
2022-07-29T22:36:43.656Z,17.13
2022-07-29T22:39:11.908Z,17.12
2022-07-29T22:41:43.327Z,17.14
2022-07-29T22:44:10.997Z,17.06
2022-07-29T22:46:38.676Z,16.89
2022-07-29T22:49:07.771Z,16.63
2022-07-29T22:51:35.648Z,16.65
2022-07-29T22:54:03.313Z,16.77
2022-07-29T22:56:30.997Z,16.83
2022-07-29T22:58:58.643Z,16.88
2022-07-29T23:01:37.616Z,16.96
2022-07-29T23:04:08.081Z,17.00
2022-07-29T23:06:35.885Z,17.03
2022-07-29T23:09:03.557Z,17.08
2022-07-29T23:11:31.231Z,17.12
2022-07-29T23:13:58.878Z,17.15
2022-07-29T23:16:27.138Z,17.20
2022-07-29T23:18:55.021Z,17.23
2022-07-29T23:21:24.558Z,17.18
2022-07-29T23:23:52.176Z,17.11
2022-07-29T23:26:19.946Z,17.10
2022-07-29T23:28:47.599Z,17.09
2022-07-29T23:31:15.433Z,17.14
2022-07-29T23:33:43.174Z,17.20
2022-07-29T23:36:10.893Z,17.24
2022-07-29T23:38:41.579Z,17.21
2022-07-29T23:41:09.963Z,17.23
2022-07-29T23:43:37.878Z,17.19
2022-07-29T23:46:06.416Z,17.23
2022-07-29T23:48:34.646Z,17.20
2022-07-29T23:51:02.284Z,17.15
2022-07-29T23:53:30.017Z,17.18
2022-07-29T23:55:58.969Z,17.16
2022-07-29T23:58:26.583Z,17.19
